Terminal Aerodrome Forecast
Issued by NWS

Home | Current Version | Previous Version | Text Only | Print | Product List | Glossary On
Versions: 1 2 3 4 5 6 7 8 9 10 11 12 13 14
905
FTUS46 KSTO 031737
TAFSCK
TAF
KSCK 031737Z 0318/0418 15005KT P6SM SKC
      TEMPO 0318/0319 4SM BR
     FM041000 VRB03KT 4SM BR FEW250
     FM041400 VRB03KT 2SM BR SCT250
     FM041700 VRB03KT P6SM BKN250=

USA.gov is the U.S. government's official web portal to all federal, state and local government web resources and services.